Terminal Aerodrome Forecast
Issued by NWS

Home | Current Version | Previous Version | Text Only | Print | Product List | Glossary On
Versions: 1 2 3 4 5 6 7 8 9 10 11 12 13 14 15 16 17 18 19 20 21 22 23 24
521
FTUS45 KRIW 270529
TAFPNA
TAF
KPNA 270529Z 2706/2806 28011KT P6SM SCT100 BKN200
     FM271500 12010KT P6SM SCT080 BKN150
     FM271800 11011KT P6SM VCSH SCT070 BKN120
     FM272200 07010KT P6SM VCTS SCT050CB OVC080
     FM280400 05010KT P6SM VCSH BKN060
      AMD LTD TO CLD VIS AND WIND=

USA.gov is the U.S. government's official web portal to all federal, state and local government web resources and services.